Time;durP1;ratioP1;P1;durP2;ratioP2;P2;SDS_P1;SDS_P2;PMS_P1;PMS_P2;Temp;Humidity;BMP_temperature;BMP_pressure;BME280_temperature;BME280_humidity;BME280_pressure;Samples;Min_cycle;Max_cycle;Signal;HPM_P1;HPM_P2
2020/12/10 00:00:05;;;;;;;0.30;0.30;;;14.60;81.50;;;;;;4212384;28;20135;-39
2020/12/10 00:02:28;;;;;;;6.32;1.58;;;14.50;81.50;;;;;;4212418;28;20076;-38
2020/12/10 00:04:49;;;;;;;0.55;0.55;;;14.50;82.40;;;;;;4212419;28;20125;-39
2020/12/10 00:07:09;;;;;;;14.35;1.05;;;14.50;81.60;;;;;;4212516;28;20060;-39
2020/12/10 00:09:30;;;;;;;4.70;2.33;;;14.50;81.70;;;;;;4212585;28;20048;-39
2020/12/10 00:11:51;;;;;;;7.07;2.35;;;14.50;81.70;;;;;;4212053;28;20482;-39
2020/12/10 00:14:12;;;;;;;;;;;14.50;81.80;;;;;;4212732;28;20494;-39
2020/12/10 00:16:33;;;;;;;1.58;1.48;;;14.50;82.10;;;;;;4212185;28;19969;-39
2020/12/10 00:18:54;;;;;;;0.63;0.30;;;14.40;81.90;;;;;;4212242;28;20056;-39
2020/12/10 00:21:20;;;;;;;0.93;0.93;;;14.40;81.90;;;;;;4212788;28;20060;-39
2020/12/10 00:23:46;;;;;;;0.10;0.10;;;14.40;82.00;;;;;;4212482;28;20059;-39
2020/12/10 00:26:06;;;;;;;1.00;1.00;;;14.40;82.20;;;;;;4212280;28;20052;-38
2020/12/10 00:28:28;;;;;;;0.68;0.68;;;14.40;82.20;;;;;;4212397;28;20445;-39
2020/12/10 00:30:49;;;;;;;2.13;1.50;;;14.40;82.10;;;;;;4212073;28;20060;-39
2020/12/10 00:33:11;;;;;;;0.75;0.75;;;14.40;82.30;;;;;;4212314;28;20135;-39
2020/12/10 00:35:32;;;;;;;1.08;1.08;;;14.40;82.30;;;;;;4211908;28;20052;-39
2020/12/10 00:37:53;;;;;;;1.08;1.08;;;14.30;82.30;;;;;;4212714;28;20461;-38
2020/12/10 00:40:14;;;;;;;0.90;0.90;;;14.30;82.30;;;;;;4212572;28;20062;-39
2020/12/10 00:42:35;;;;;;;1.55;1.17;;;14.30;82.40;;;;;;4212410;28;20059;-38
2020/12/10 00:44:57;;;;;;;0.32;0.32;;;14.30;82.40;;;;;;4211667;28;20464;-38
2020/12/10 00:47:18;;;;;;;0.63;0.63;;;14.30;82.40;;;;;;4212729;28;20152;-38
2020/12/10 00:49:41;;;;;;;1.10;1.10;;;14.30;82.50;;;;;;4211312;28;20051;-39
2020/12/10 00:52:02;;;;;;;0.08;0.08;;;14.30;82.40;;;;;;4212262;28;20079;-40
2020/12/10 00:54:27;;;;;;;3.83;2.78;;;14.30;82.50;;;;;;4211081;28;20099;-41
2020/12/10 00:56:51;;;;;;;1.52;1.05;;;14.20;82.50;;;;;;4210970;28;20151;-38
2020/12/10 00:59:12;;;;;;;0.38;0.38;;;14.30;82.40;;;;;;4211803;28;20502;-39
2020/12/10 01:01:41;;;;;;;5.43;1.77;;;14.50;81.70;;;;;;4211917;28;20056;-38
2020/12/10 01:04:02;;;;;;;6.97;1.20;;;14.70;81.50;;;;;;4211856;28;20052;-40
2020/12/10 01:06:26;;;;;;;2.30;2.20;;;14.80;80.10;;;;;;4211635;28;20102;-40
2020/12/10 01:08:47;;;;;;;1.75;1.65;;;14.90;79.30;;;;;;4212370;28;20113;-40
2020/12/10 01:11:07;;;;;;;0.85;0.85;;;14.90;78.80;;;;;;4211966;28;20520;-40
2020/12/10 01:13:28;;;;;;;2.30;2.15;;;15.00;78.60;;;;;;4195838;28;20056;-39
2020/12/10 01:15:53;;;;;;;;;;;15.00;78.50;;;;;;4195499;28;20068;-41
2020/12/10 01:18:17;;;;;;;1.27;1.08;;;15.00;78.40;;;;;;4195239;28;19920;-40
2020/12/10 01:20:38;;;;;;;1.83;1.77;;;14.90;78.50;;;;;;4210362;28;20056;-38
2020/12/10 01:23:01;;;;;;;4.53;1.25;;;14.90;78.70;;;;;;4212426;28;20055;-41
2020/12/10 01:25:22;;;;;;;1.52;1.42;;;14.90;78.80;;;;;;4211670;28;20052;-40
2020/12/10 01:27:45;;;;;;;0.32;0.32;;;14.80;78.70;;;;;;4211814;28;20052;-41
2020/12/10 01:30:08;;;;;;;0.40;0.40;;;14.80;79.00;;;;;;4211901;28;20052;-40
2020/12/10 01:32:29;;;;;;;1.45;0.55;;;14.90;79.80;;;;;;4211823;28;20048;-40
2020/12/10 01:34:52;;;;;;;;;;;14.90;78.80;;;;;;4212181;28;20640;-41
2020/12/10 01:37:12;;;;;;;;;;;14.90;78.80;;;;;;4212530;28;20427;-41
2020/12/10 01:39:34;;;;;;;4.07;3.80;;;14.90;78.50;;;;;;4211684;28;19920;-39
2020/12/10 01:42:00;;;;;;;0.50;0.50;;;15.00;78.30;;;;;;4211863;28;20113;-41
2020/12/10 01:44:21;;;;;;;8.52;2.08;;;15.00;78.30;;;;;;4211865;28;20048;-42
2020/12/10 01:46:43;;;;;;;2.08;2.00;;;14.90;78.20;;;;;;4212196;28;20155;-41
2020/12/10 01:49:05;;;;;;;1.55;1.38;;;14.90;78.20;;;;;;4212127;28;20619;-41
2020/12/10 01:51:27;;;;;;;4.55;3.28;;;14.90;78.30;;;;;;4213611;28;20052;-41
2020/12/10 01:53:49;;;;;;;0.68;0.68;;;14.90;78.40;;;;;;4213565;28;20477;-39
2020/12/10 01:56:10;;;;;;;;;;;14.90;78.50;;;;;;4214864;28;20047;-40
2020/12/10 01:58:32;;;;;;;0.20;0.20;;;14.80;78.60;;;;;;4214638;28;20374;-39
2020/12/10 02:00:53;;;;;;;0.50;0.45;;;14.80;78.70;;;;;;4214502;28;20048;-40
2020/12/10 02:03:14;;;;;;;3.10;1.23;;;15.00;78.10;;;;;;4214605;28;20068;-38
2020/12/10 02:05:41;;;;;;;1.45;0.75;;;15.10;77.30;;;;;;4204291;28;20040;-39
2020/12/10 02:08:04;;;;;;;0.00;0.00;;;15.20;76.70;;;;;;4214267;28;20056;-39
2020/12/10 02:10:24;;;;;;;1.98;0.82;;;15.30;76.30;;;;;;4214242;28;20059;-39
2020/12/10 02:12:45;;;;;;;0.70;0.70;;;15.30;76.20;;;;;;4214156;28;20052;-39
2020/12/10 02:15:06;;;;;;;3.10;1.70;;;15.30;76.20;;;;;;4213908;28;20052;-39
2020/12/10 02:17:27;;;;;;;3.47;1.25;;;15.30;76.30;;;;;;4214343;28;20297;-39
2020/12/10 02:19:48;;;;;;;2.42;2.25;;;15.20;76.40;;;;;;4214182;28;20524;-39
2020/12/10 02:22:09;;;;;;;0.68;0.68;;;15.20;76.50;;;;;;4214045;28;20054;-39
2020/12/10 02:24:31;;;;;;;1.00;1.00;;;15.20;76.40;;;;;;4214099;28;20132;-39
2020/12/10 02:26:52;;;;;;;2.58;2.45;;;15.20;76.40;;;;;;4213995;28;20109;-40
2020/12/10 02:29:16;;;;;;;2.17;1.20;;;15.10;76.50;;;;;;4214093;28;20679;-38
2020/12/10 02:31:38;;;;;;;0.47;0.47;;;15.20;76.60;;;;;;4213957;28;20502;-39
2020/12/10 02:34:00;;;;;;;1.55;1.45;;;15.10;76.80;;;;;;4213622;28;20047;-38
2020/12/10 02:36:21;;;;;;;0.15;0.15;;;15.10;76.90;;;;;;4213732;28;20497;-38
2020/12/10 02:38:42;;;;;;;0.28;0.28;;;15.00;77.10;;;;;;4214574;28;20051;-41
2020/12/10 02:41:04;;;;;;;7.55;1.02;;;15.00;77.10;;;;;;4213758;28;20052;-38
2020/12/10 02:43:26;;;;;;;0.77;0.77;;;15.20;76.60;;;;;;4214100;28;20051;-40
2020/12/10 02:45:50;;;;;;;3.35;0.85;;;15.40;75.30;;;;;;4213831;28;20138;-39
2020/12/10 02:48:11;;;;;;;0.90;0.90;;;15.60;74.20;;;;;;4213750;28;20463;-38
2020/12/10 02:50:32;;;;;;;;;;;15.80;73.40;;;;;;4197638;28;20525;-40
2020/12/10 02:52:53;;;;;;;0.25;0.25;;;15.80;72.80;;;;;;4197094;28;19966;-39
2020/12/10 02:55:14;;;;;;;3.95;3.67;;;15.80;72.70;;;;;;4196982;28;20048;-39
2020/12/10 02:57:36;;;;;;;6.32;3.03;;;15.80;72.80;;;;;;4211062;28;20174;-38
2020/12/10 02:59:57;;;;;;;1.60;1.45;;;15.70;73.00;;;;;;4213717;28;20047;-39
2020/12/10 03:02:18;;;;;;;11.10;2.13;;;15.70;73.20;;;;;;4213564;28;20126;-39
2020/12/10 03:04:39;;;;;;;2.33;1.90;;;15.60;73.60;;;;;;4213397;28;20067;-39
2020/12/10 03:07:00;;;;;;;0.73;0.73;;;15.60;73.80;;;;;;4209516;28;20079;-39
2020/12/10 03:09:23;;;;;;;1.85;0.90;;;15.60;73.70;;;;;;4214039;28;20482;-39
2020/12/10 03:11:44;;;;;;;;;;;15.60;73.60;;;;;;4214393;28;20514;-39
2020/12/10 03:14:07;;;;;;;0.47;0.47;;;15.60;73.80;;;;;;4213614;28;19927;-40
2020/12/10 03:16:28;;;;;;;6.63;3.15;;;15.50;73.90;;;;;;4213247;28;20056;-39
2020/12/10 03:18:49;;;;;;;2.30;1.45;;;15.50;74.00;;;;;;4211996;28;20087;-39
2020/12/10 03:21:11;;;;;;;0.10;0.10;;;15.50;74.20;;;;;;4213576;28;20075;-39
2020/12/10 03:23:32;;;;;;;6.05;3.45;;;15.40;74.10;;;;;;4213752;28;20136;-42
2020/12/10 03:25:54;;;;;;;2.80;2.60;;;15.40;74.10;;;;;;4213481;28;20075;-39
2020/12/10 03:28:14;;;;;;;1.90;1.77;;;15.50;74.00;;;;;;4213628;28;20400;-41
2020/12/10 03:30:37;;;;;;;4.40;1.92;;;15.50;74.00;;;;;;4211959;28;20534;-39
2020/12/10 03:32:58;;;;;;;1.58;1.48;;;15.60;73.70;;;;;;4213158;28;20482;-41
2020/12/10 03:35:19;;;;;;;1.80;1.70;;;15.70;73.10;;;;;;4200129;28;20051;-40
2020/12/10 03:37:41;;;;;;;1.02;1.02;;;15.80;72.50;;;;;;4213089;28;20048;-41
2020/12/10 03:40:03;;;;;;;1.67;1.67;;;15.80;72.20;;;;;;4212967;28;20469;-43
2020/12/10 03:42:27;;;;;;;1.35;1.27;;;15.80;72.10;;;;;;4212910;28;20052;-45
2020/12/10 03:44:48;;;;;;;2.38;2.25;;;15.80;72.10;;;;;;4212586;28;20052;-41
2020/12/10 03:47:10;;;;;;;1.85;1.15;;;15.80;72.30;;;;;;4212828;28;20191;-39
2020/12/10 03:49:31;;;;;;;3.17;1.85;;;15.80;72.40;;;;;;4212696;28;20056;-41
2020/12/10 03:51:52;;;;;;;1.05;1.05;;;15.70;72.50;;;;;;4212863;28;20505;-40
2020/12/10 03:54:13;;;;;;;0.93;0.93;;;15.60;72.80;;;;;;4213036;28;20052;-41
2020/12/10 03:56:34;;;;;;;0.52;0.43;;;15.60;73.10;;;;;;4213051;28;20751;-41
2020/12/10 03:58:55;;;;;;;0.65;0.65;;;15.50;73.30;;;;;;4213138;28;20044;-41
2020/12/10 04:01:16;;;;;;;0.25;0.25;;;15.50;73.20;;;;;;4212725;28;20443;-40
2020/12/10 04:03:38;;;;;;;0.28;0.28;;;15.50;73.20;;;;;;4212623;28;20063;-41
2020/12/10 04:05:59;;;;;;;2.05;1.45;;;15.50;73.30;;;;;;4211588;28;20095;-41
2020/12/10 04:08:20;;;;;;;1.85;1.75;;;15.50;73.40;;;;;;4195801;28;20064;-41
2020/12/10 04:10:41;;;;;;;1.75;1.70;;;15.50;74.40;;;;;;4196256;28;20052;-41
2020/12/10 04:13:05;;;;;;;1.05;0.98;;;15.40;74.00;;;;;;4195900;28;20070;-40
2020/12/10 04:15:26;;;;;;;2.95;1.92;;;15.40;74.00;;;;;;4212337;28;20052;-41
2020/12/10 04:17:47;;;;;;;2.10;2.00;;;15.50;73.60;;;;;;4212876;28;20052;-41
2020/12/10 04:20:09;;;;;;;1.23;1.23;;;15.50;73.40;;;;;;4212316;28;20367;-40
2020/12/10 04:22:29;;;;;;;2.22;2.00;;;15.50;73.20;;;;;;4212413;28;20260;-41
2020/12/10 04:24:50;;;;;;;1.13;1.13;;;15.50;73.20;;;;;;4212752;28;20059;-39
2020/12/10 04:27:13;;;;;;;0.82;0.82;;;15.50;73.30;;;;;;4212441;28;20056;-40
2020/12/10 04:29:38;;;;;;;1.73;1.70;;;15.60;73.10;;;;;;4212293;28;20494;-40
2020/12/10 04:31:59;;;;;;;2.92;2.80;;;15.70;72.60;;;;;;4212773;28;20113;-38
2020/12/10 04:34:21;;;;;;;5.35;2.03;;;15.80;72.20;;;;;;4212065;28;20573;-40
2020/12/10 04:36:47;;;;;;;0.57;0.57;;;15.80;71.90;;;;;;4211645;28;20059;-41
2020/12/10 04:39:09;;;;;;;0.70;0.70;;;15.80;71.90;;;;;;4212834;28;20048;-41
2020/12/10 04:41:34;;;;;;;1.25;1.25;;;15.80;71.70;;;;;;4212196;28;20048;-40
2020/12/10 04:43:55;;;;;;;2.42;1.65;;;15.90;71.20;;;;;;4212159;28;20333;-42
2020/12/10 04:46:20;;;;;;;0.65;0.65;;;16.00;70.70;;;;;;4212427;28;20051;-41
2020/12/10 04:48:42;;;;;;;0.65;0.65;;;16.10;70.40;;;;;;4211913;28;20082;-40
2020/12/10 04:51:05;;;;;;;;;;;16.00;70.40;;;;;;4212575;28;20054;-41
2020/12/10 04:53:27;;;;;;;1.75;0.82;;;16.10;70.40;;;;;;4212357;28;19973;-41
2020/12/10 04:55:49;;;;;;;1.88;1.77;;;16.20;69.90;;;;;;4211899;28;20048;-41
2020/12/10 04:58:13;;;;;;;0.75;0.75;;;16.20;70.10;;;;;;4212471;28;20048;-41
2020/12/10 05:00:37;;;;;;;0.70;0.70;;;16.30;69.00;;;;;;4212302;28;20499;-40
2020/12/10 05:02:59;;;;;;;5.05;2.90;;;16.30;68.80;;;;;;4211880;28;20055;-40
2020/12/10 05:05:24;;;;;;;3.55;2.85;;;16.30;68.90;;;;;;4212224;28;20600;-41
2020/12/10 05:07:49;;;;;;;5.28;2.83;;;16.30;68.80;;;;;;4211477;28;20162;-40
2020/12/10 05:10:10;;;;;;;4.57;4.22;;;16.40;68.70;;;;;;4211766;28;20524;-41
2020/12/10 05:12:31;;;;;;;2.38;1.55;;;16.30;69.50;;;;;;4211971;28;20060;-41
2020/12/10 05:14:53;;;;;;;0.43;0.43;;;16.30;68.70;;;;;;4210832;28;20056;-41
2020/12/10 05:17:15;;;;;;;;;;;16.20;69.00;;;;;;4212895;28;20052;-40
2020/12/10 05:19:37;;;;;;;2.40;2.30;;;16.10;69.30;;;;;;4211735;28;19920;-40
2020/12/10 05:22:04;;;;;;;2.40;2.30;;;16.10;69.50;;;;;;4211937;28;20121;-40
2020/12/10 05:24:24;;;;;;;1.48;0.63;;;16.10;69.70;;;;;;4211718;28;20044;-40
2020/12/10 05:26:48;;;;;;;10.85;2.30;;;16.00;69.80;;;;;;4215284;28;20517;-41
2020/12/10 05:29:13;;;;;;;5.47;1.10;;;15.90;70.10;;;;;;4215485;28;20060;-41
2020/12/10 05:31:36;;;;;;;;;;;15.80;70.40;;;;;;4215431;28;20075;-41
2020/12/10 05:33:58;;;;;;;4.57;2.17;;;15.80;70.90;;;;;;4214897;28;20002;-43
2020/12/10 05:36:20;;;;;;;0.70;0.70;;;15.90;70.60;;;;;;4215373;28;20048;-41
2020/12/10 05:41:33;;;;;;;4.22;2.03;;;16.10;69.50;;;;;;4214882;28;20060;-40
2020/12/10 05:43:55;;;;;;;2.40;2.30;;;16.10;69.30;;;;;;4214872;28;20048;-40
2020/12/10 05:46:18;;;;;;;8.25;1.67;;;16.10;69.40;;;;;;4214063;28;20052;-40
2020/12/10 05:48:39;;;;;;;2.42;2.22;;;16.00;69.60;;;;;;4214475;28;20055;-40
2020/12/10 05:51:02;;;;;;;4.60;4.18;;;15.90;70.00;;;;;;4214877;28;20094;-41
2020/12/10 05:53:30;;;;;;;3.17;1.38;;;15.80;70.50;;;;;;4214993;28;20058;-41
2020/12/10 05:55:51;;;;;;;3.03;0.80;;;15.80;71.10;;;;;;4214688;28;20047;-40
2020/12/10 05:58:12;;;;;;;0.57;0.57;;;15.90;71.00;;;;;;4214472;28;20048;-40
2020/12/10 06:00:35;;;;;;;2.08;1.65;;;16.00;70.50;;;;;;4215213;28;20107;-41
2020/12/10 06:02:59;;;;;;;0.30;0.30;;;16.10;70.10;;;;;;4214990;28;20040;-41
2020/12/10 06:05:20;;;;;;;1.25;1.25;;;16.10;70.10;;;;;;4213157;28;20056;-40
2020/12/10 06:07:57;;;;;;;1.17;1.17;;;16.10;70.20;;;;;;4214783;28;20062;-41
2020/12/10 06:10:20;;;;;;;2.85;2.60;;;16.00;70.50;;;;;;4214390;28;20145;-40
2020/12/10 06:12:49;;;;;;;0.73;0.73;;;16.00;70.70;;;;;;4214191;28;20052;-40
2020/12/10 06:15:09;;;;;;;2.22;2.13;;;15.90;71.00;;;;;;4214026;28;20056;-41
2020/12/10 06:17:31;;;;;;;1.10;1.10;;;15.90;71.30;;;;;;4213691;28;20083;-40
2020/12/10 06:19:53;;;;;;;1.40;1.35;;;15.80;71.60;;;;;;4197929;28;20059;-41
2020/12/10 06:22:24;;;;;;;1.77;1.08;;;15.90;71.60;;;;;;4197545;28;20052;-41
2020/12/10 06:24:45;;;;;;;6.00;1.85;;;15.90;71.50;;;;;;4212252;28;20052;-42
2020/12/10 06:27:27;;;;;;;9.82;2.15;;;16.00;71.30;;;;;;4214267;28;20101;-41
2020/12/10 06:29:48;;;;;;;1.38;1.38;;;16.10;70.70;;;;;;4214143;28;20048;-40
2020/12/10 06:32:11;;;;;;;4.03;0.77;;;16.30;70.10;;;;;;4212772;28;20062;-40
2020/12/10 06:34:34;;;;;;;1.05;1.05;;;16.40;69.50;;;;;;4214542;28;20052;-40
2020/12/10 06:37:28;;;;;;;0.52;0.52;;;16.50;69.20;;;;;;4213562;28;20052;-41
2020/12/10 06:39:57;;;;;;;0.43;0.43;;;16.50;69.00;;;;;;4214025;28;20127;-41
2020/12/10 06:42:18;;;;;;;2.45;2.25;;;16.40;69.10;;;;;;4197060;28;20055;-41
2020/12/10 06:44:40;;;;;;;0.80;0.80;;;16.50;68.90;;;;;;4197240;28;20055;-40
2020/12/10 06:49:42;;;;;;;1.42;1.42;;;16.70;68.00;;;;;;4197018;28;20732;-41
2020/12/10 06:52:19;;;;;;;1.67;1.58;;;16.70;67.80;;;;;;4200374;28;20071;-40
2020/12/10 06:55:08;;;;;;;4.57;0.75;;;16.60;68.00;;;;;;4213624;28;20141;-41
2020/12/10 06:57:50;;;;;;;0.82;0.82;;;16.60;68.30;;;;;;4213832;28;20047;-40
2020/12/10 07:00:38;;;;;;;0.77;0.77;;;16.50;68.70;;;;;;4213801;28;20076;-40
2020/12/10 07:03:09;;;;;;;2.42;1.73;;;16.40;69.00;;;;;;4213360;28;20060;-40
2020/12/10 07:05:34;;;;;;;1.38;1.38;;;16.30;69.60;;;;;;4213763;28;20481;-40
2020/12/10 07:08:09;;;;;;;0.95;0.95;;;16.20;70.00;;;;;;4197066;28;20080;-41
2020/12/10 07:10:42;;;;;;;1.10;1.10;;;16.10;70.60;;;;;;4198937;28;20173;-40
2020/12/10 07:15:41;;;;;;;1.50;1.40;;;15.90;71.70;;;;;;4213308;28;20056;-41
2020/12/10 07:18:05;;;;;;;2.88;2.67;;;15.80;72.10;;;;;;4212622;28;20062;-40
2020/12/10 07:20:26;;;;;;;3.80;3.45;;;15.80;73.30;;;;;;4205189;28;20046;-40
2020/12/10 07:25:28;;;;;;;3.15;2.30;;;15.70;74.10;;;;;;4211037;28;20465;-40
2020/12/10 07:30:29;;;;;;;2.13;2.03;;;15.70;73.80;;;;;;4211265;28;20125;-41
2020/12/10 07:32:54;;;;;;;1.25;1.25;;;15.60;73.70;;;;;;4208777;28;20513;-40
2020/12/10 07:35:18;;;;;;;0.77;0.77;;;15.60;74.00;;;;;;4210024;28;20482;-40
2020/12/10 07:37:40;;;;;;;0.70;0.70;;;15.60;74.20;;;;;;4209015;28;20055;-41
2020/12/10 07:40:18;;;;;;;3.13;2.00;;;15.60;74.20;;;;;;4208196;28;20132;-40
2020/12/10 07:42:40;;;;;;;2.63;1.33;;;15.80;73.70;;;;;;4208891;28;20052;-40
2020/12/10 07:45:10;;;;;;;0.40;0.40;;;15.90;73.10;;;;;;4208374;28;20052;-40
2020/12/10 07:47:31;;;;;;;0.10;0.10;;;16.00;72.70;;;;;;4211251;28;20052;-40
2020/12/10 07:49:53;;;;;;;1.42;1.33;;;16.00;73.30;;;;;;4212360;28;20055;-40
2020/12/10 07:52:14;;;;;;;1.00;1.00;;;16.10;72.30;;;;;;4212156;28;20063;-40
2020/12/10 07:57:36;;;;;;;1.45;1.45;;;16.30;70.80;;;;;;4212205;28;20075;-40
2020/12/10 08:03:06;;;;;;;2.67;2.47;;;16.40;69.80;;;;;;4209156;28;20502;-40
2020/12/10 08:05:28;;;;;;;15.20;1.75;;;16.50;69.20;;;;;;4206908;28;20044;-40
2020/12/10 08:08:10;;;;;;;0.65;0.55;;;16.50;68.80;;;;;;4210175;28;20050;-40
2020/12/10 08:10:33;;;;;;;2.92;1.40;;;16.50;68.70;;;;;;4208245;28;20055;-39
2020/12/10 08:13:14;;;;;;;0.82;0.75;;;16.50;68.70;;;;;;4212144;28;20491;-39
2020/12/10 08:15:35;;;;;;;1.85;1.75;;;16.60;69.30;;;;;;4211393;28;20531;-40
2020/12/10 08:18:02;;;;;;;0.32;0.32;;;16.60;68.30;;;;;;4211563;28;20071;-40
2020/12/10 08:20:55;;;;;;;0.85;0.85;;;16.60;68.50;;;;;;4210820;28;20043;-39
2020/12/10 08:26:12;;;;;;;3.05;1.65;;;16.50;68.50;;;;;;4206284;28;20051;-40
2020/12/10 08:31:20;;;;;;;1.48;1.40;;;16.60;68.90;;;;;;4208576;28;20048;-40
2020/12/10 08:33:41;;;;;;;0.45;0.45;;;16.60;67.80;;;;;;4208713;28;20056;-40
2020/12/10 08:36:02;;;;;;;1.27;1.27;;;16.60;67.90;;;;;;4207037;28;20079;-39
2020/12/10 08:38:23;;;;;;;;;;;16.80;67.50;;;;;;4211438;28;20040;-39
2020/12/10 08:43:20;;;;;;;2.50;2.30;;;17.00;66.50;;;;;;4209743;28;20045;-40
2020/12/10 08:45:47;;;;;;;0.65;0.65;;;17.00;66.20;;;;;;4208110;28;20048;-39
2020/12/10 08:48:11;;;;;;;1.67;1.67;;;17.00;66.40;;;;;;4208454;28;20052;-40
2020/12/10 08:50:34;;;;;;;6.72;2.80;;;16.90;66.80;;;;;;4207279;28;20048;-40
2020/12/10 08:53:09;;;;;;;0.45;0.45;;;16.80;67.30;;;;;;4211593;28;20118;-40
2020/12/10 08:55:37;;;;;;;0.47;0.47;;;16.70;68.70;;;;;;4207712;28;20070;-42
2020/12/10 08:57:59;;;;;;;2.25;2.10;;;16.50;68.20;;;;;;4211324;28;20066;-39
2020/12/10 09:00:38;;;;;;;6.40;3.65;;;16.40;68.80;;;;;;4209676;28;20055;-40
2020/12/10 09:03:00;;;;;;;1.88;1.45;;;16.30;69.30;;;;;;4214518;28;20048;-39
2020/12/10 09:11:05;;;;;;;4.70;2.10;;;16.00;70.70;;;;;;4209894;28;20051;-40
2020/12/10 09:13:26;;;;;;;;;;;16.00;70.70;;;;;;4214924;28;20047;-40
2020/12/10 09:18:26;;;;;;;2.30;1.77;;;15.90;71.00;;;;;;4214447;28;20109;-40
2020/12/10 09:20:47;;;;;;;0.68;0.68;;;15.80;72.10;;;;;;4211974;28;20048;-40
2020/12/10 09:23:08;;;;;;;2.38;1.17;;;15.80;71.20;;;;;;4211388;28;20047;-40
2020/12/10 09:25:29;;;;;;;3.20;2.58;;;15.90;71.00;;;;;;4214104;28;20131;-40
2020/12/10 09:30:26;;;;;;;1.65;1.55;;;15.90;70.60;;;;;;4213182;28;19924;-42
2020/12/10 09:32:49;;;;;;;1.02;1.02;;;15.90;70.70;;;;;;4212345;28;20113;-40
2020/12/10 09:35:15;;;;;;;3.22;2.95;;;15.90;70.70;;;;;;4211169;28;20414;-39
2020/12/10 09:40:18;;;;;;;2.47;2.38;;;15.80;71.00;;;;;;4205226;28;20492;-38
2020/12/10 09:42:41;;;;;;;1.52;1.52;;;15.90;71.50;;;;;;4211475;28;20499;-39
2020/12/10 09:45:12;;;;;;;0.77;0.77;;;16.00;69.80;;;;;;4209545;28;20044;-39
2020/12/10 09:47:33;;;;;;;2.47;2.38;;;16.20;69.30;;;;;;4213266;28;20054;-39
2020/12/10 09:49:56;;;;;;;0.85;0.85;;;16.20;69.00;;;;;;4213615;28;20388;-39
2020/12/10 09:52:18;;;;;;;2.55;2.08;;;16.20;69.10;;;;;;4211755;28;20123;-40
2020/12/10 09:57:30;;;;;;;0.73;0.73;;;16.20;69.00;;;;;;4212878;28;20523;-39
2020/12/10 09:59:51;;;;;;;0.63;0.52;;;16.30;68.70;;;;;;4211983;28;20074;-40
2020/12/10 10:04:48;;;;;;;2.65;2.55;;;16.30;68.80;;;;;;4213372;28;20052;-39
2020/12/10 10:07:09;;;;;;;2.42;2.33;;;16.20;69.00;;;;;;4210387;28;20127;-39
2020/12/10 10:09:32;;;;;;;0.77;0.77;;;16.10;69.30;;;;;;4212667;28;20109;-39
2020/12/10 10:11:53;;;;;;;1.65;1.65;;;16.00;69.70;;;;;;4211496;28;20040;-40
2020/12/10 10:14:16;;;;;;;1.88;1.77;;;16.10;69.30;;;;;;4210579;28;20052;-39
2020/12/10 10:16:40;;;;;;;4.13;2.42;;;16.20;69.00;;;;;;4209298;28;20186;-39
2020/12/10 10:19:03;;;;;;;1.10;1.10;;;16.20;68.90;;;;;;4209191;28;20113;-39
2020/12/10 10:21:27;;;;;;;;;;;16.20;68.90;;;;;;4212452;28;20123;-39
2020/12/10 10:29:06;;;;;;;10.68;1.00;;;16.00;69.70;;;;;;4212676;28;20570;-40
2020/12/10 10:31:34;;;;;;;1.08;1.08;;;15.90;70.10;;;;;;4212025;28;20447;-39
2020/12/10 10:33:56;;;;;;;0.38;0.38;;;15.70;71.50;;;;;;4212030;28;20127;-40
2020/12/10 10:36:22;;;;;;;2.85;2.65;;;15.70;70.90;;;;;;4213071;28;20048;-40
2020/12/10 10:38:45;;;;;;;0.43;0.43;;;15.80;70.70;;;;;;4210714;28;20048;-40
2020/12/10 10:41:07;;;;;;;6.53;1.38;;;15.80;70.40;;;;;;4209011;28;20051;-40
2020/12/10 10:43:29;;;;;;;0.20;0.20;;;15.90;70.30;;;;;;4213003;28;20048;-40
2020/12/10 10:51:05;;;;;;;12.60;5.78;;;15.90;70.00;;;;;;4208802;28;20552;-40
2020/12/10 10:53:26;;;;;;;;;;;15.90;70.00;;;;;;4212015;28;20128;-39
2020/12/10 10:58:26;;;;;;;0.57;0.57;;;15.80;70.40;;;;;;4211000;28;20062;-39
2020/12/10 11:00:48;;;;;;;0.45;0.45;;;15.70;70.90;;;;;;4210109;28;20048;-40
2020/12/10 11:03:09;;;;;;;2.53;2.35;;;15.80;70.90;;;;;;4209172;28;20048;-40
2020/12/10 11:05:30;;;;;;;0.65;0.65;;;15.90;70.40;;;;;;4212620;28;20048;-40
2020/12/10 11:07:57;;;;;;;3.72;1.02;;;16.00;70.80;;;;;;4209669;28;20054;-40
2020/12/10 11:10:22;;;;;;;4.57;2.03;;;16.10;69.30;;;;;;4210318;28;20052;-39
2020/12/10 11:12:48;;;;;;;2.17;1.27;;;16.10;69.00;;;;;;4212047;28;20076;-40
2020/12/10 11:15:09;;;;;;;1.75;1.75;;;16.10;70.10;;;;;;4212236;28;20047;-40
2020/12/10 11:17:31;;;;;;;2.22;2.13;;;16.10;69.30;;;;;;4211354;28;20048;-40
2020/12/10 11:19:52;;;;;;;2.38;0.93;;;16.00;69.60;;;;;;4210735;28;20152;-40
2020/12/10 11:24:49;;;;;;;1.52;1.52;;;15.90;70.30;;;;;;4210650;28;20494;-48
2020/12/10 11:27:11;;;;;;;0.77;0.77;;;15.80;70.80;;;;;;4208789;28;20055;-41
2020/12/10 11:32:17;;;;;;;1.35;0.63;;;15.60;71.50;;;;;;4211576;28;20044;-40
2020/12/10 11:34:39;;;;;;;2.58;1.65;;;15.50;71.90;;;;;;4207978;28;20188;-39
2020/12/10 11:37:00;;;;;;;3.20;1.98;;;15.40;72.40;;;;;;4211002;28;20040;-40
2020/12/10 11:39:21;;;;;;;1.48;0.82;;;15.40;72.80;;;;;;4211592;28;20052;-40
2020/12/10 11:41:52;;;;;;;0.80;0.68;;;15.30;73.10;;;;;;4208916;28;20056;-40
2020/12/10 11:44:16;;;;;;;14.60;3.88;;;15.30;73.00;;;;;;4210035;28;20130;-40
2020/12/10 11:46:46;;;;;;;0.60;0.60;;;15.40;73.00;;;;;;4207973;28;20070;-40
2020/12/10 11:49:08;;;;;;;0.65;0.65;;;15.40;73.00;;;;;;4208621;28;20759;-40
2020/12/10 11:51:44;;;;;;;0.30;0.30;;;15.40;72.90;;;;;;4211425;28;20048;-40
2020/12/10 11:54:08;;;;;;;1.33;1.33;;;15.60;72.20;;;;;;4206701;28;20056;-40
2020/12/10 11:56:29;;;;;;;0.35;0.35;;;15.70;71.10;;;;;;4211499;28;20059;-40
2020/12/10 11:58:50;;;;;;;3.33;3.22;;;15.90;70.70;;;;;;4209621;28;20056;-39
2020/12/10 12:01:11;;;;;;;1.02;1.02;;;15.90;70.40;;;;;;4208287;28;20048;-39
2020/12/10 12:06:12;;;;;;;0.63;0.63;;;15.90;70.70;;;;;;4208552;28;20102;-40
2020/12/10 12:08:37;;;;;;;2.72;2.55;;;15.80;71.00;;;;;;4211705;28;20048;-40
2020/12/10 12:13:41;;;;;;;0.22;0.22;;;15.90;71.30;;;;;;4208582;28;20074;-40
2020/12/10 12:16:32;;;;;;;15.65;3.25;;;15.90;71.00;;;;;;4208975;28;20456;-40
2020/12/10 12:19:18;;;;;;;9.40;1.95;;;16.10;70.60;;;;;;4210246;28;20051;-40
2020/12/10 12:21:44;;;;;;;1.30;1.23;;;16.20;70.00;;;;;;4208508;28;20044;-40
2020/12/10 12:26:44;;;;;;;1.10;1.10;;;16.20;69.80;;;;;;4208580;28;19923;-40
2020/12/10 12:29:04;;;;;;;0.32;0.32;;;16.20;70.00;;;;;;4207927;28;20544;-40
2020/12/10 12:31:30;;;;;;;0.52;0.52;;;16.20;70.10;;;;;;4211503;28;20495;-40
2020/12/10 12:33:58;;;;;;;0.88;0.88;;;16.10;70.30;;;;;;4210676;28;20071;-40
2020/12/10 12:36:19;;;;;;;0.75;0.75;;;16.10;70.60;;;;;;4209446;28;20047;-40
2020/12/10 12:38:40;;;;;;;1.02;1.02;;;16.00;70.90;;;;;;4211530;28;20698;-40
2020/12/10 12:41:03;;;;;;;5.40;2.25;;;15.90;71.20;;;;;;4211746;28;20048;-40
2020/12/10 12:43:24;;;;;;;3.05;2.08;;;15.90;71.70;;;;;;4210316;28;20052;-41
2020/12/10 12:45:45;;;;;;;3.20;3.03;;;16.00;71.40;;;;;;4203571;28;20056;-40
2020/12/10 12:48:06;;;;;;;0.32;0.32;;;16.20;70.60;;;;;;4207733;28;20105;-40
2020/12/10 12:50:27;;;;;;;0.00;0.00;;;16.30;69.70;;;;;;4211607;28;20040;-40
2020/12/10 12:53:18;;;;;;;3.50;2.65;;;16.50;69.10;;;;;;4209091;28;20063;-40
2020/12/10 12:59:04;;;;;;;1.50;1.50;;;16.50;68.70;;;;;;4208380;28;20494;-40
2020/12/10 13:01:47;;;;;;;2.17;2.08;;;16.50;69.00;;;;;;4208541;28;20052;-40
2020/12/10 13:04:12;;;;;;;1.20;1.20;;;16.50;68.90;;;;;;4211597;28;20048;-40
2020/12/10 13:06:50;;;;;;;2.40;2.30;;;16.40;68.90;;;;;;4211095;28;20052;-39
2020/12/10 13:09:14;;;;;;;1.77;1.77;;;16.40;69.30;;;;;;4208505;28;20059;-40
2020/12/10 13:11:54;;;;;;;5.68;2.72;;;16.30;69.60;;;;;;4207035;28;20044;-40
2020/12/10 13:14:50;;;;;;;1.00;1.00;;;16.30;69.90;;;;;;4209456;28;20474;-40
2020/12/10 13:17:35;;;;;;;0.98;0.98;;;16.30;69.60;;;;;;4235296;28;20179;-42
2020/12/10 13:19:56;;;;;;;1.35;1.35;;;16.40;69.20;;;;;;4210051;28;20048;-40
2020/12/10 13:22:41;;;;;;;1.38;1.38;;;16.50;69.10;;;;;;4208817;28;20055;-40
2020/12/10 13:25:08;;;;;;;2.58;2.42;;;16.40;69.10;;;;;;4211203;28;20459;-40
2020/12/10 13:27:31;;;;;;;0.40;0.40;;;16.30;69.50;;;;;;4209399;28;20040;-40
2020/12/10 13:30:19;;;;;;;2.50;2.30;;;16.30;69.70;;;;;;4208740;28;20062;-40
2020/12/10 13:32:40;;;;;;;1.58;1.52;;;16.40;69.10;;;;;;4211188;28;20498;-41
2020/12/10 13:35:01;;;;;;;0.73;0.73;;;16.50;68.80;;;;;;4211390;28;20058;-40
2020/12/10 13:37:22;;;;;;;1.10;1.10;;;16.50;68.60;;;;;;4209108;28;20048;-41
2020/12/10 13:42:19;;;;;;;2.58;2.45;;;16.40;68.90;;;;;;4208212;28;20077;-40
2020/12/10 13:45:06;;;;;;;1.15;1.15;;;16.30;69.20;;;;;;4208025;28;20056;-41
2020/12/10 13:47:28;;;;;;;0.20;0.20;;;16.30;69.60;;;;;;4213168;28;20079;-40
2020/12/10 13:50:14;;;;;;;2.58;2.47;;;16.20;69.90;;;;;;4213350;28;20504;-41
2020/12/10 13:52:37;;;;;;;1.30;0.65;;;16.10;70.20;;;;;;4211627;28;20767;-41